sensor_id;sensor_type;location;lat;lon;timestamp;P1;durP1;ratioP1;P2;durP2;ratioP2
3177;SDS011;38141;42.666;23.344;2023-02-03T00:01:46;4.90;;;3.80;;
3177;SDS011;38141;42.666;23.344;2023-02-03T00:04:13;5.07;;;3.60;;
3177;SDS011;38141;42.666;23.344;2023-02-03T00:06:40;6.27;;;4.33;;
3177;SDS011;38141;42.666;23.344;2023-02-03T00:09:07;5.40;;;3.90;;
3177;SDS011;38141;42.666;23.344;2023-02-03T00:11:34;5.00;;;3.90;;
3177;SDS011;38141;42.666;23.344;2023-02-03T00:14:01;5.83;;;3.80;;
3177;SDS011;38141;42.666;23.344;2023-02-03T00:16:29;5.07;;;3.73;;
3177;SDS011;38141;42.666;23.344;2023-02-03T00:18:57;5.47;;;3.90;;
3177;SDS011;38141;42.666;23.344;2023-02-03T00:21:24;7.57;;;4.20;;
3177;SDS011;38141;42.666;23.344;2023-02-03T00:23:51;6.50;;;4.10;;
3177;SDS011;38141;42.666;23.344;2023-02-03T00:26:18;6.53;;;4.47;;
3177;SDS011;38141;42.666;23.344;2023-02-03T00:28:45;5.30;;;4.30;;
3177;SDS011;38141;42.666;23.344;2023-02-03T00:31:13;5.97;;;3.90;;
3177;SDS011;38141;42.666;23.344;2023-02-03T00:33:41;5.30;;;4.67;;
3177;SDS011;38141;42.666;23.344;2023-02-03T00:36:10;6.43;;;4.90;;
3177;SDS011;38141;42.666;23.344;2023-02-03T00:38:38;7.43;;;5.07;;
3177;SDS011;38141;42.666;23.344;2023-02-03T00:41:04;9.03;;;5.20;;
3177;SDS011;38141;42.666;23.344;2023-02-03T00:43:31;7.60;;;5.37;;
3177;SDS011;38141;42.666;23.344;2023-02-03T00:45:58;6.33;;;4.57;;
3177;SDS011;38141;42.666;23.344;2023-02-03T00:48:25;6.87;;;4.90;;
3177;SDS011;38141;42.666;23.344;2023-02-03T00:50:52;8.73;;;5.00;;
3177;SDS011;38141;42.666;23.344;2023-02-03T00:53:20;6.47;;;4.60;;
3177;SDS011;38141;42.666;23.344;2023-02-03T00:55:47;6.00;;;4.87;;
3177;SDS011;38141;42.666;23.344;2023-02-03T00:58:13;6.40;;;5.30;;
3177;SDS011;38141;42.666;23.344;2023-02-03T01:00:40;7.90;;;4.93;;
3177;SDS011;38141;42.666;23.344;2023-02-03T01:03:07;6.40;;;4.60;;
3177;SDS011;38141;42.666;23.344;2023-02-03T01:05:34;7.77;;;5.20;;
3177;SDS011;38141;42.666;23.344;2023-02-03T01:08:01;6.77;;;4.97;;
3177;SDS011;38141;42.666;23.344;2023-02-03T01:10:30;6.90;;;4.80;;
3177;SDS011;38141;42.666;23.344;2023-02-03T01:12:57;7.73;;;5.33;;
3177;SDS011;38141;42.666;23.344;2023-02-03T01:15:24;7.60;;;4.80;;
3177;SDS011;38141;42.666;23.344;2023-02-03T01:17:51;7.10;;;4.77;;
3177;SDS011;38141;42.666;23.344;2023-02-03T01:20:18;6.87;;;4.73;;
3177;SDS011;38141;42.666;23.344;2023-02-03T01:22:45;5.20;;;3.97;;
3177;SDS011;38141;42.666;23.344;2023-02-03T01:25:12;5.17;;;4.17;;
3177;SDS011;38141;42.666;23.344;2023-02-03T01:27:40;5.50;;;4.17;;
3177;SDS011;38141;42.666;23.344;2023-02-03T01:30:07;5.30;;;4.13;;
3177;SDS011;38141;42.666;23.344;2023-02-03T01:32:35;4.03;;;3.63;;
3177;SDS011;38141;42.666;23.344;2023-02-03T01:35:02;5.00;;;3.47;;
3177;SDS011;38141;42.666;23.344;2023-02-03T01:37:29;4.60;;;3.40;;
3177;SDS011;38141;42.666;23.344;2023-02-03T01:39:55;3.63;;;2.97;;
3177;SDS011;38141;42.666;23.344;2023-02-03T01:42:22;3.33;;;2.80;;
3177;SDS011;38141;42.666;23.344;2023-02-03T01:44:50;5.47;;;3.77;;
3177;SDS011;38141;42.666;23.344;2023-02-03T01:47:23;5.83;;;3.37;;
3177;SDS011;38141;42.666;23.344;2023-02-03T01:50:05;5.90;;;2.70;;
3177;SDS011;38141;42.666;23.344;2023-02-03T01:52:36;3.97;;;2.80;;
3177;SDS011;38141;42.666;23.344;2023-02-03T01:55:07;5.83;;;3.70;;
3177;SDS011;38141;42.666;23.344;2023-02-03T01:57:39;4.00;;;2.90;;
3177;SDS011;38141;42.666;23.344;2023-02-03T02:00:13;3.63;;;2.77;;
3177;SDS011;38141;42.666;23.344;2023-02-03T02:02:40;3.33;;;2.67;;
3177;SDS011;38141;42.666;23.344;2023-02-03T02:05:10;3.80;;;3.00;;
3177;SDS011;38141;42.666;23.344;2023-02-03T02:07:43;4.30;;;2.93;;
3177;SDS011;38141;42.666;23.344;2023-02-03T02:10:12;6.40;;;3.60;;
3177;SDS011;38141;42.666;23.344;2023-02-03T02:12:38;3.37;;;3.07;;
3177;SDS011;38141;42.666;23.344;2023-02-03T02:15:06;3.97;;;3.07;;
3177;SDS011;38141;42.666;23.344;2023-02-03T02:17:38;3.90;;;3.10;;
3177;SDS011;38141;42.666;23.344;2023-02-03T02:20:30;4.47;;;3.00;;
3177;SDS011;38141;42.666;23.344;2023-02-03T02:26:20;3.70;;;3.17;;
3177;SDS011;38141;42.666;23.344;2023-02-03T02:29:18;3.80;;;3.20;;
3177;SDS011;38141;42.666;23.344;2023-02-03T02:32:15;4.63;;;3.40;;
3177;SDS011;38141;42.666;23.344;2023-02-03T02:34:53;3.60;;;3.27;;
3177;SDS011;38141;42.666;23.344;2023-02-03T02:37:32;6.00;;;3.73;;
3177;SDS011;38141;42.666;23.344;2023-02-03T02:40:06;4.23;;;3.50;;
3177;SDS011;38141;42.666;23.344;2023-02-03T02:42:42;3.60;;;3.30;;
3177;SDS011;38141;42.666;23.344;2023-02-03T02:45:16;6.23;;;4.30;;
3177;SDS011;38141;42.666;23.344;2023-02-03T02:47:51;4.07;;;3.63;;
3177;SDS011;38141;42.666;23.344;2023-02-03T02:50:25;4.90;;;4.40;;
3177;SDS011;38141;42.666;23.344;2023-02-03T02:52:58;4.60;;;3.83;;
3177;SDS011;38141;42.666;23.344;2023-02-03T02:55:26;4.00;;;3.60;;
3177;SDS011;38141;42.666;23.344;2023-02-03T02:57:57;3.97;;;3.60;;
3177;SDS011;38141;42.666;23.344;2023-02-03T03:00:29;5.03;;;3.80;;
3177;SDS011;38141;42.666;23.344;2023-02-03T03:03:05;6.33;;;4.03;;
3177;SDS011;38141;42.666;23.344;2023-02-03T03:05:37;4.60;;;4.20;;
3177;SDS011;38141;42.666;23.344;2023-02-03T03:08:05;4.03;;;3.63;;
3177;SDS011;38141;42.666;23.344;2023-02-03T03:10:35;4.40;;;4.00;;
3177;SDS011;38141;42.666;23.344;2023-02-03T03:13:04;5.53;;;3.83;;
3177;SDS011;38141;42.666;23.344;2023-02-03T03:15:35;6.90;;;4.17;;
3177;SDS011;38141;42.666;23.344;2023-02-03T03:18:08;4.90;;;4.07;;
3177;SDS011;38141;42.666;23.344;2023-02-03T03:20:39;5.30;;;3.87;;
3177;SDS011;38141;42.666;23.344;2023-02-03T03:23:10;6.40;;;3.90;;
3177;SDS011;38141;42.666;23.344;2023-02-03T03:25:40;4.30;;;3.87;;
3177;SDS011;38141;42.666;23.344;2023-02-03T03:28:12;8.73;;;3.93;;
3177;SDS011;38141;42.666;23.344;2023-02-03T03:30:42;4.43;;;3.80;;
3177;SDS011;38141;42.666;23.344;2023-02-03T03:33:10;5.13;;;3.90;;
3177;SDS011;38141;42.666;23.344;2023-02-03T03:35:38;3.90;;;3.50;;
3177;SDS011;38141;42.666;23.344;2023-02-03T03:38:12;8.50;;;3.83;;
3177;SDS011;38141;42.666;23.344;2023-02-03T03:40:48;4.90;;;3.80;;
3177;SDS011;38141;42.666;23.344;2023-02-03T03:43:20;4.07;;;3.70;;
3177;SDS011;38141;42.666;23.344;2023-02-03T03:45:53;3.37;;;3.07;;
3177;SDS011;38141;42.666;23.344;2023-02-03T03:48:26;8.30;;;3.33;;
3177;SDS011;38141;42.666;23.344;2023-02-03T03:50:59;4.10;;;3.30;;
3177;SDS011;38141;42.666;23.344;2023-02-03T03:53:30;4.07;;;3.03;;
3177;SDS011;38141;42.666;23.344;2023-02-03T03:56:00;3.37;;;3.07;;
3177;SDS011;38141;42.666;23.344;2023-02-03T03:58:30;4.10;;;3.13;;
3177;SDS011;38141;42.666;23.344;2023-02-03T04:00:59;5.37;;;3.40;;
3177;SDS011;38141;42.666;23.344;2023-02-03T04:03:31;4.53;;;3.40;;
3177;SDS011;38141;42.666;23.344;2023-02-03T04:06:00;5.00;;;3.53;;
3177;SDS011;38141;42.666;23.344;2023-02-03T04:08:27;4.33;;;3.93;;
3177;SDS011;38141;42.666;23.344;2023-02-03T04:10:54;4.63;;;3.60;;
3177;SDS011;38141;42.666;23.344;2023-02-03T04:13:21;4.13;;;3.73;;
3177;SDS011;38141;42.666;23.344;2023-02-03T04:15:47;4.90;;;3.90;;
3177;SDS011;38141;42.666;23.344;2023-02-03T04:18:14;6.90;;;4.07;;
3177;SDS011;38141;42.666;23.344;2023-02-03T04:20:43;12.30;;;4.00;;
3177;SDS011;38141;42.666;23.344;2023-02-03T04:23:09;5.87;;;4.03;;
3177;SDS011;38141;42.666;23.344;2023-02-03T04:25:36;6.00;;;3.97;;
3177;SDS011;38141;42.666;23.344;2023-02-03T04:28:03;4.10;;;3.40;;
3177;SDS011;38141;42.666;23.344;2023-02-03T04:30:31;4.20;;;3.57;;
3177;SDS011;38141;42.666;23.344;2023-02-03T04:32:58;4.90;;;3.60;;
3177;SDS011;38141;42.666;23.344;2023-02-03T04:35:25;4.40;;;3.93;;
3177;SDS011;38141;42.666;23.344;2023-02-03T04:37:53;5.50;;;4.07;;
3177;SDS011;38141;42.666;23.344;2023-02-03T04:40:20;4.40;;;4.00;;
3177;SDS011;38141;42.666;23.344;2023-02-03T04:42:46;4.33;;;3.93;;
3177;SDS011;38141;42.666;23.344;2023-02-03T04:45:13;5.53;;;4.50;;
3177;SDS011;38141;42.666;23.344;2023-02-03T04:47:40;4.77;;;3.90;;
3177;SDS011;38141;42.666;23.344;2023-02-03T04:50:07;5.30;;;3.83;;
3177;SDS011;38141;42.666;23.344;2023-02-03T04:52:34;6.87;;;4.60;;
3177;SDS011;38141;42.666;23.344;2023-02-03T04:55:03;4.60;;;4.20;;
3177;SDS011;38141;42.666;23.344;2023-02-03T04:57:30;8.70;;;4.37;;
3177;SDS011;38141;42.666;23.344;2023-02-03T04:59:57;5.57;;;4.17;;
3177;SDS011;38141;42.666;23.344;2023-02-03T05:02:24;7.27;;;4.70;;
3177;SDS011;38141;42.666;23.344;2023-02-03T05:04:50;5.30;;;4.30;;
3177;SDS011;38141;42.666;23.344;2023-02-03T05:07:17;4.90;;;4.50;;
3177;SDS011;38141;42.666;23.344;2023-02-03T05:09:44;5.37;;;4.20;;
3177;SDS011;38141;42.666;23.344;2023-02-03T05:12:12;5.50;;;4.67;;
3177;SDS011;38141;42.666;23.344;2023-02-03T05:14:39;5.53;;;4.90;;
3177;SDS011;38141;42.666;23.344;2023-02-03T05:17:05;6.03;;;4.50;;
3177;SDS011;38141;42.666;23.344;2023-02-03T05:19:32;5.60;;;4.67;;
3177;SDS011;38141;42.666;23.344;2023-02-03T05:21:59;4.70;;;4.10;;
3177;SDS011;38141;42.666;23.344;2023-02-03T05:24:25;5.90;;;4.80;;
3177;SDS011;38141;42.666;23.344;2023-02-03T05:26:52;6.00;;;4.87;;
3177;SDS011;38141;42.666;23.344;2023-02-03T05:29:20;7.17;;;5.27;;
3177;SDS011;38141;42.666;23.344;2023-02-03T05:31:47;5.50;;;5.00;;
3177;SDS011;38141;42.666;23.344;2023-02-03T05:34:14;5.90;;;5.33;;
3177;SDS011;38141;42.666;23.344;2023-02-03T05:36:41;7.23;;;5.77;;
3177;SDS011;38141;42.666;23.344;2023-02-03T05:39:07;6.93;;;5.37;;
3177;SDS011;38141;42.666;23.344;2023-02-03T05:41:34;6.47;;;5.23;;
3177;SDS011;38141;42.666;23.344;2023-02-03T05:44:17;7.90;;;5.30;;
3177;SDS011;38141;42.666;23.344;2023-02-03T05:46:46;6.10;;;5.33;;
3177;SDS011;38141;42.666;23.344;2023-02-03T05:49:14;5.60;;;5.00;;
3177;SDS011;38141;42.666;23.344;2023-02-03T05:51:40;5.37;;;4.87;;
3177;SDS011;38141;42.666;23.344;2023-02-03T05:54:08;8.03;;;5.80;;
3177;SDS011;38141;42.666;23.344;2023-02-03T05:56:35;8.00;;;5.40;;
3177;SDS011;38141;42.666;23.344;2023-02-03T05:59:02;7.53;;;5.67;;
3177;SDS011;38141;42.666;23.344;2023-02-03T06:01:29;7.53;;;5.40;;
3177;SDS011;38141;42.666;23.344;2023-02-03T06:03:58;5.73;;;4.87;;
3177;SDS011;38141;42.666;23.344;2023-02-03T06:06:24;6.80;;;5.20;;
3177;SDS011;38141;42.666;23.344;2023-02-03T06:08:57;7.37;;;4.70;;
3177;SDS011;38141;42.666;23.344;2023-02-03T06:11:23;9.50;;;5.93;;
3177;SDS011;38141;42.666;23.344;2023-02-03T06:13:50;7.30;;;5.77;;
3177;SDS011;38141;42.666;23.344;2023-02-03T06:16:17;8.10;;;5.70;;
3177;SDS011;38141;42.666;23.344;2023-02-03T06:18:44;8.40;;;5.50;;
3177;SDS011;38141;42.666;23.344;2023-02-03T06:21:12;7.50;;;5.40;;
3177;SDS011;38141;42.666;23.344;2023-02-03T06:23:39;5.50;;;5.00;;
3177;SDS011;38141;42.666;23.344;2023-02-03T06:26:05;7.60;;;5.13;;
3177;SDS011;38141;42.666;23.344;2023-02-03T06:28:32;5.20;;;4.70;;
3177;SDS011;38141;42.666;23.344;2023-02-03T06:30:59;5.80;;;4.40;;
3177;SDS011;38141;42.666;23.344;2023-02-03T06:33:26;5.63;;;4.70;;
3177;SDS011;38141;42.666;23.344;2023-02-03T06:35:53;6.53;;;4.90;;
3177;SDS011;38141;42.666;23.344;2023-02-03T06:38:21;4.93;;;4.43;;
3177;SDS011;38141;42.666;23.344;2023-02-03T06:40:48;8.73;;;5.63;;
3177;SDS011;38141;42.666;23.344;2023-02-03T06:43:15;4.80;;;4.00;;
3177;SDS011;38141;42.666;23.344;2023-02-03T06:45:44;7.33;;;4.23;;
3177;SDS011;38141;42.666;23.344;2023-02-03T06:48:12;18.20;;;12.43;;
3177;SDS011;38141;42.666;23.344;2023-02-03T06:50:39;12.87;;;8.30;;
3177;SDS011;38141;42.666;23.344;2023-02-03T06:53:07;10.03;;;5.33;;
3177;SDS011;38141;42.666;23.344;2023-02-03T06:55:35;4.10;;;3.70;;
3177;SDS011;38141;42.666;23.344;2023-02-03T06:58:02;5.57;;;3.80;;
3177;SDS011;38141;42.666;23.344;2023-02-03T07:00:28;4.63;;;3.13;;
3177;SDS011;38141;42.666;23.344;2023-02-03T07:02:55;5.30;;;3.90;;
3177;SDS011;38141;42.666;23.344;2023-02-03T07:05:23;5.50;;;4.20;;
3177;SDS011;38141;42.666;23.344;2023-02-03T07:07:51;5.97;;;4.50;;
3177;SDS011;38141;42.666;23.344;2023-02-03T07:10:18;5.07;;;3.80;;
3177;SDS011;38141;42.666;23.344;2023-02-03T07:12:47;5.30;;;3.80;;
3177;SDS011;38141;42.666;23.344;2023-02-03T07:15:14;12.40;;;5.03;;
3177;SDS011;38141;42.666;23.344;2023-02-03T07:17:41;6.50;;;4.27;;
3177;SDS011;38141;42.666;23.344;2023-02-03T07:20:09;26.43;;;13.10;;
3177;SDS011;38141;42.666;23.344;2023-02-03T07:22:36;16.73;;;9.20;;
3177;SDS011;38141;42.666;23.344;2023-02-03T07:25:06;3.80;;;3.50;;
3177;SDS011;38141;42.666;23.344;2023-02-03T07:27:33;4.20;;;3.80;;
3177;SDS011;38141;42.666;23.344;2023-02-03T07:30:01;4.07;;;3.67;;
3177;SDS011;38141;42.666;23.344;2023-02-03T07:32:28;3.87;;;3.57;;
3177;SDS011;38141;42.666;23.344;2023-02-03T07:34:55;3.63;;;3.33;;
3177;SDS011;38141;42.666;23.344;2023-02-03T07:37:22;4.00;;;3.37;;
3177;SDS011;38141;42.666;23.344;2023-02-03T07:39:48;6.10;;;4.30;;
3177;SDS011;38141;42.666;23.344;2023-02-03T07:42:15;6.30;;;3.73;;
3177;SDS011;38141;42.666;23.344;2023-02-03T07:44:42;7.93;;;5.10;;
3177;SDS011;38141;42.666;23.344;2023-02-03T07:47:10;11.50;;;4.30;;
3177;SDS011;38141;42.666;23.344;2023-02-03T07:49:37;4.87;;;4.10;;
3177;SDS011;38141;42.666;23.344;2023-02-03T07:52:04;5.37;;;3.70;;
3177;SDS011;38141;42.666;23.344;2023-02-03T07:54:30;4.00;;;3.30;;
3177;SDS011;38141;42.666;23.344;2023-02-03T07:56:57;5.10;;;3.63;;
3177;SDS011;38141;42.666;23.344;2023-02-03T07:59:24;5.60;;;3.67;;
3177;SDS011;38141;42.666;23.344;2023-02-03T08:01:51;6.67;;;4.50;;
3177;SDS011;38141;42.666;23.344;2023-02-03T08:04:21;9.47;;;5.60;;
3177;SDS011;38141;42.666;23.344;2023-02-03T08:06:48;12.97;;;6.03;;
3177;SDS011;38141;42.666;23.344;2023-02-03T08:09:15;6.20;;;5.00;;
3177;SDS011;38141;42.666;23.344;2023-02-03T08:11:42;3.60;;;3.30;;
3177;SDS011;38141;42.666;23.344;2023-02-03T08:14:09;4.90;;;3.83;;
3177;SDS011;38141;42.666;23.344;2023-02-03T08:16:35;4.00;;;3.10;;
3177;SDS011;38141;42.666;23.344;2023-02-03T08:19:02;3.90;;;3.50;;
3177;SDS011;38141;42.666;23.344;2023-02-03T08:21:31;5.70;;;3.97;;
3177;SDS011;38141;42.666;23.344;2023-02-03T08:23:58;6.37;;;3.30;;
3177;SDS011;38141;42.666;23.344;2023-02-03T08:26:24;4.50;;;2.93;;
3177;SDS011;38141;42.666;23.344;2023-02-03T08:28:51;5.07;;;3.40;;
3177;SDS011;38141;42.666;23.344;2023-02-03T08:31:18;3.90;;;3.50;;
3177;SDS011;38141;42.666;23.344;2023-02-03T08:33:45;7.07;;;4.13;;
3177;SDS011;38141;42.666;23.344;2023-02-03T08:36:11;7.43;;;4.63;;
3177;SDS011;38141;42.666;23.344;2023-02-03T08:38:40;6.93;;;3.80;;
3177;SDS011;38141;42.666;23.344;2023-02-03T08:41:07;3.47;;;3.17;;
3177;SDS011;38141;42.666;23.344;2023-02-03T08:43:34;4.73;;;3.60;;
3177;SDS011;38141;42.666;23.344;2023-02-03T08:46:02;4.60;;;3.60;;
3177;SDS011;38141;42.666;23.344;2023-02-03T08:48:29;5.53;;;3.40;;
3177;SDS011;38141;42.666;23.344;2023-02-03T08:50:55;3.23;;;2.80;;
3177;SDS011;38141;42.666;23.344;2023-02-03T08:53:22;6.23;;;3.07;;
3177;SDS011;38141;42.666;23.344;2023-02-03T08:55:50;3.07;;;2.77;;
3177;SDS011;38141;42.666;23.344;2023-02-03T08:58:17;8.27;;;3.20;;
3177;SDS011;38141;42.666;23.344;2023-02-03T09:00:44;6.00;;;3.27;;
3177;SDS011;38141;42.666;23.344;2023-02-03T09:03:13;4.37;;;3.17;;
3177;SDS011;38141;42.666;23.344;2023-02-03T09:05:40;2.60;;;2.40;;
3177;SDS011;38141;42.666;23.344;2023-02-03T09:08:07;12.97;;;9.00;;
3177;SDS011;38141;42.666;23.344;2023-02-03T09:13:02;5.23;;;3.43;;
3177;SDS011;38141;42.666;23.344;2023-02-03T09:15:29;3.90;;;3.37;;
3177;SDS011;38141;42.666;23.344;2023-02-03T09:17:56;3.87;;;3.37;;
3177;SDS011;38141;42.666;23.344;2023-02-03T09:20:22;5.20;;;3.53;;
3177;SDS011;38141;42.666;23.344;2023-02-03T09:22:50;7.50;;;3.23;;
3177;SDS011;38141;42.666;23.344;2023-02-03T09:25:19;4.40;;;3.43;;
3177;SDS011;38141;42.666;23.344;2023-02-03T09:27:46;3.70;;;2.30;;
3177;SDS011;38141;42.666;23.344;2023-02-03T09:30:15;4.47;;;2.63;;
3177;SDS011;38141;42.666;23.344;2023-02-03T09:32:42;2.83;;;2.57;;
3177;SDS011;38141;42.666;23.344;2023-02-03T09:35:13;5.20;;;3.07;;
3177;SDS011;38141;42.666;23.344;2023-02-03T09:37:39;3.27;;;2.97;;
3177;SDS011;38141;42.666;23.344;2023-02-03T09:40:07;3.20;;;2.70;;
3177;SDS011;38141;42.666;23.344;2023-02-03T09:42:52;5.73;;;3.63;;
3177;SDS011;38141;42.666;23.344;2023-02-03T09:45:26;4.50;;;3.10;;
3177;SDS011;38141;42.666;23.344;2023-02-03T09:47:56;3.23;;;2.93;;
3177;SDS011;38141;42.666;23.344;2023-02-03T09:50:30;3.83;;;2.67;;
3177;SDS011;38141;42.666;23.344;2023-02-03T09:53:02;3.90;;;2.63;;
3177;SDS011;38141;42.666;23.344;2023-02-03T09:55:33;4.50;;;2.80;;
3177;SDS011;38141;42.666;23.344;2023-02-03T09:58:05;2.97;;;2.47;;
3177;SDS011;38141;42.666;23.344;2023-02-03T10:00:39;2.60;;;2.40;;
3177;SDS011;38141;42.666;23.344;2023-02-03T10:03:11;3.00;;;2.57;;
3177;SDS011;38141;42.666;23.344;2023-02-03T10:05:53;4.57;;;2.20;;
3177;SDS011;38141;42.666;23.344;2023-02-03T10:08:32;2.83;;;2.33;;
3177;SDS011;38141;42.666;23.344;2023-02-03T10:11:11;4.53;;;2.93;;
3177;SDS011;38141;42.666;23.344;2023-02-03T10:13:52;6.23;;;2.97;;
3177;SDS011;38141;42.666;23.344;2023-02-03T10:16:37;5.13;;;2.70;;
3177;SDS011;38141;42.666;23.344;2023-02-03T10:19:14;3.53;;;2.70;;
3177;SDS011;38141;42.666;23.344;2023-02-03T10:21:46;6.00;;;3.70;;
3177;SDS011;38141;42.666;23.344;2023-02-03T10:24:17;5.27;;;3.07;;
3177;SDS011;38141;42.666;23.344;2023-02-03T10:26:50;3.37;;;3.00;;
3177;SDS011;38141;42.666;23.344;2023-02-03T10:29:19;4.20;;;3.10;;
3177;SDS011;38141;42.666;23.344;2023-02-03T10:31:54;5.37;;;3.03;;
3177;SDS011;38141;42.666;23.344;2023-02-03T10:34:23;3.40;;;3.10;;
3177;SDS011;38141;42.666;23.344;2023-02-03T10:36:53;6.40;;;3.23;;
3177;SDS011;38141;42.666;23.344;2023-02-03T10:39:27;5.57;;;3.10;;
3177;SDS011;38141;42.666;23.344;2023-02-03T10:41:57;3.63;;;3.27;;
3177;SDS011;38141;42.666;23.344;2023-02-03T10:44:28;3.40;;;3.10;;
3177;SDS011;38141;42.666;23.344;2023-02-03T10:46:59;3.33;;;3.03;;
3177;SDS011;38141;42.666;23.344;2023-02-03T10:49:26;4.53;;;3.40;;
3177;SDS011;38141;42.666;23.344;2023-02-03T10:51:54;5.10;;;3.20;;
3177;SDS011;38141;42.666;23.344;2023-02-03T10:54:27;4.40;;;2.90;;
3177;SDS011;38141;42.666;23.344;2023-02-03T10:56:57;3.80;;;3.47;;
3177;SDS011;38141;42.666;23.344;2023-02-03T10:59:29;5.17;;;3.10;;
3177;SDS011;38141;42.666;23.344;2023-02-03T11:02:00;3.57;;;3.27;;
3177;SDS011;38141;42.666;23.344;2023-02-03T11:04:34;4.33;;;2.90;;
3177;SDS011;38141;42.666;23.344;2023-02-03T11:07:02;6.93;;;3.10;;
3177;SDS011;38141;42.666;23.344;2023-02-03T11:09:32;3.77;;;2.93;;
3177;SDS011;38141;42.666;23.344;2023-02-03T11:12:04;3.90;;;3.53;;
3177;SDS011;38141;42.666;23.344;2023-02-03T11:14:37;4.20;;;3.20;;
3177;SDS011;38141;42.666;23.344;2023-02-03T11:17:08;3.33;;;3.00;;
3177;SDS011;38141;42.666;23.344;2023-02-03T11:19:41;7.63;;;3.17;;
3177;SDS011;38141;42.666;23.344;2023-02-03T11:22:10;4.80;;;3.43;;
3177;SDS011;38141;42.666;23.344;2023-02-03T11:24:38;3.33;;;3.00;;
3177;SDS011;38141;42.666;23.344;2023-02-03T11:27:08;4.30;;;2.53;;
3177;SDS011;38141;42.666;23.344;2023-02-03T11:29:39;4.10;;;2.63;;
3177;SDS011;38141;42.666;23.344;2023-02-03T11:32:15;4.43;;;2.93;;
3177;SDS011;38141;42.666;23.344;2023-02-03T11:34:46;2.90;;;2.60;;
3177;SDS011;38141;42.666;23.344;2023-02-03T11:37:24;2.83;;;2.47;;
3177;SDS011;38141;42.666;23.344;2023-02-03T11:39:54;2.90;;;2.43;;
3177;SDS011;38141;42.666;23.344;2023-02-03T11:42:21;4.10;;;2.77;;
3177;SDS011;38141;42.666;23.344;2023-02-03T11:44:52;5.13;;;2.60;;
3177;SDS011;38141;42.666;23.344;2023-02-03T11:47:44;4.83;;;2.50;;
3177;SDS011;38141;42.666;23.344;2023-02-03T11:50:15;2.47;;;2.27;;
3177;SDS011;38141;42.666;23.344;2023-02-03T11:55:50;7.30;;;5.23;;
3177;SDS011;38141;42.666;23.344;2023-02-03T11:58:41;8.00;;;4.73;;
3177;SDS011;38141;42.666;23.344;2023-02-03T12:01:32;3.80;;;3.40;;
3177;SDS011;38141;42.666;23.344;2023-02-03T12:04:32;4.40;;;3.20;;
3177;SDS011;38141;42.666;23.344;2023-02-03T12:07:23;3.03;;;2.60;;
3177;SDS011;38141;42.666;23.344;2023-02-03T12:10:27;2.80;;;2.60;;
3177;SDS011;38141;42.666;23.344;2023-02-03T12:13:06;2.50;;;2.30;;
3177;SDS011;38141;42.666;23.344;2023-02-03T12:15:50;3.80;;;2.77;;
3177;SDS011;38141;42.666;23.344;2023-02-03T12:18:37;3.90;;;2.90;;
3177;SDS011;38141;42.666;23.344;2023-02-03T12:21:21;3.53;;;3.00;;
3177;SDS011;38141;42.666;23.344;2023-02-03T12:23:59;3.13;;;2.70;;
3177;SDS011;38141;42.666;23.344;2023-02-03T12:26:33;2.73;;;2.50;;
3177;SDS011;38141;42.666;23.344;2023-02-03T12:29:08;2.40;;;2.20;;
3177;SDS011;38141;42.666;23.344;2023-02-03T12:31:38;3.57;;;2.43;;
3177;SDS011;38141;42.666;23.344;2023-02-03T12:34:12;4.90;;;2.57;;
3177;SDS011;38141;42.666;23.344;2023-02-03T12:36:46;3.07;;;2.37;;
3177;SDS011;38141;42.666;23.344;2023-02-03T12:39:18;2.70;;;2.00;;
3177;SDS011;38141;42.666;23.344;2023-02-03T12:41:53;3.33;;;2.43;;
3177;SDS011;38141;42.666;23.344;2023-02-03T12:44:28;2.90;;;2.70;;
3177;SDS011;38141;42.666;23.344;2023-02-03T12:47:02;3.20;;;2.47;;
3177;SDS011;38141;42.666;23.344;2023-02-03T12:49:40;4.70;;;2.13;;
3177;SDS011;38141;42.666;23.344;2023-02-03T12:52:15;4.93;;;3.00;;
3177;SDS011;38141;42.666;23.344;2023-02-03T12:54:48;3.50;;;2.60;;
3177;SDS011;38141;42.666;23.344;2023-02-03T12:57:24;6.10;;;3.30;;
3177;SDS011;38141;42.666;23.344;2023-02-03T12:59:57;5.03;;;3.17;;
3177;SDS011;38141;42.666;23.344;2023-02-03T13:02:31;4.53;;;3.13;;
3177;SDS011;38141;42.666;23.344;2023-02-03T13:05:04;4.87;;;3.00;;
3177;SDS011;38141;42.666;23.344;2023-02-03T13:07:42;2.93;;;2.73;;
3177;SDS011;38141;42.666;23.344;2023-02-03T13:10:15;3.20;;;2.83;;
3177;SDS011;38141;42.666;23.344;2023-02-03T13:12:49;3.47;;;3.10;;
3177;SDS011;38141;42.666;23.344;2023-02-03T13:15:21;4.00;;;2.90;;
3177;SDS011;38141;42.666;23.344;2023-02-03T13:17:53;3.97;;;3.30;;
3177;SDS011;38141;42.666;23.344;2023-02-03T13:20:23;5.20;;;3.40;;
3177;SDS011;38141;42.666;23.344;2023-02-03T13:22:54;5.93;;;3.33;;
3177;SDS011;38141;42.666;23.344;2023-02-03T13:25:22;4.33;;;3.50;;
3177;SDS011;38141;42.666;23.344;2023-02-03T13:27:56;4.03;;;3.63;;
3177;SDS011;38141;42.666;23.344;2023-02-03T13:30:49;9.70;;;3.70;;
3177;SDS011;38141;42.666;23.344;2023-02-03T13:33:35;3.90;;;3.33;;
3177;SDS011;38141;42.666;23.344;2023-02-03T13:36:32;7.43;;;4.30;;
3177;SDS011;38141;42.666;23.344;2023-02-03T13:39:31;5.50;;;4.30;;
3177;SDS011;38141;42.666;23.344;2023-02-03T13:42:13;7.40;;;4.50;;
3177;SDS011;38141;42.666;23.344;2023-02-03T13:44:47;8.90;;;4.30;;
3177;SDS011;38141;42.666;23.344;2023-02-03T13:47:17;5.40;;;3.73;;
3177;SDS011;38141;42.666;23.344;2023-02-03T13:49:48;13.10;;;5.03;;
3177;SDS011;38141;42.666;23.344;2023-02-03T13:52:23;4.13;;;3.40;;
3177;SDS011;38141;42.666;23.344;2023-02-03T13:54:59;4.70;;;3.73;;
3177;SDS011;38141;42.666;23.344;2023-02-03T13:57:28;5.73;;;3.77;;
3177;SDS011;38141;42.666;23.344;2023-02-03T14:00:00;6.77;;;4.40;;
3177;SDS011;38141;42.666;23.344;2023-02-03T14:05:37;4.70;;;4.27;;
3177;SDS011;38141;42.666;23.344;2023-02-03T14:23:27;6.17;;;4.80;;
3177;SDS011;38141;42.666;23.344;2023-02-03T14:26:04;6.27;;;4.73;;
3177;SDS011;38141;42.666;23.344;2023-02-03T14:28:37;9.50;;;4.50;;
3177;SDS011;38141;42.666;23.344;2023-02-03T14:31:08;6.83;;;4.80;;
3177;SDS011;38141;42.666;23.344;2023-02-03T14:33:49;5.80;;;4.63;;
3177;SDS011;38141;42.666;23.344;2023-02-03T14:36:27;6.13;;;4.90;;
3177;SDS011;38141;42.666;23.344;2023-02-03T14:38:56;8.00;;;4.90;;
3177;SDS011;38141;42.666;23.344;2023-02-03T14:41:26;6.43;;;4.97;;
3177;SDS011;38141;42.666;23.344;2023-02-03T14:44:02;5.80;;;4.70;;
3177;SDS011;38141;42.666;23.344;2023-02-03T14:46:42;6.87;;;5.50;;
3177;SDS011;38141;42.666;23.344;2023-02-03T14:49:36;12.10;;;4.53;;
3177;SDS011;38141;42.666;23.344;2023-02-03T14:52:19;6.70;;;4.47;;
3177;SDS011;38141;42.666;23.344;2023-02-03T14:55:15;6.47;;;4.60;;
3177;SDS011;38141;42.666;23.344;2023-02-03T14:57:52;8.90;;;4.60;;
3177;SDS011;38141;42.666;23.344;2023-02-03T15:00:27;5.90;;;4.20;;
3177;SDS011;38141;42.666;23.344;2023-02-03T15:05:50;4.40;;;3.93;;
3177;SDS011;38141;42.666;23.344;2023-02-03T15:08:38;4.00;;;3.60;;
3177;SDS011;38141;42.666;23.344;2023-02-03T15:11:29;5.60;;;3.90;;
3177;SDS011;38141;42.666;23.344;2023-02-03T15:14:14;5.10;;;3.40;;
3177;SDS011;38141;42.666;23.344;2023-02-03T15:16:47;5.20;;;4.07;;
3177;SDS011;38141;42.666;23.344;2023-02-03T15:19:19;5.63;;;4.17;;
3177;SDS011;38141;42.666;23.344;2023-02-03T15:21:49;9.77;;;5.40;;
3177;SDS011;38141;42.666;23.344;2023-02-03T15:24:16;7.97;;;5.80;;
3177;SDS011;38141;42.666;23.344;2023-02-03T15:26:48;6.13;;;4.77;;
3177;SDS011;38141;42.666;23.344;2023-02-03T15:29:20;10.03;;;5.17;;
3177;SDS011;38141;42.666;23.344;2023-02-03T15:31:53;7.60;;;5.03;;
3177;SDS011;38141;42.666;23.344;2023-02-03T15:34:26;6.47;;;4.47;;
3177;SDS011;38141;42.666;23.344;2023-02-03T15:36:56;7.33;;;5.20;;
3177;SDS011;38141;42.666;23.344;2023-02-03T15:39:32;12.70;;;4.73;;
3177;SDS011;38141;42.666;23.344;2023-02-03T15:42:04;34.63;;;19.77;;